Capitol Logistics 263




KIAD
Washington Dulles International Airport
Dulles, Virginia
KBOS
Logan International Airport
Boston, Massachusetts

Route Details

Aircraft Information
Group: Narrowbodies
Types: B738,B752
Route Data
Demand: M
Distance: 359nm
Duration: 1h 39m
Recm'd Route: JCOBY4 SWANN BROSS J42 RBV J222 JFK ROBUC3
Origin Wx: KIAD 272231Z 18006KT 10SM SCT013 BKN025 BKN080 23/19 A2976 RMK AO2 T02280194
Dest. Wx: KBOS 272154Z 22019G24KT 10SM SCT036 SCT220 OVC250 26/17 A2984 RMK AO2 PK WND 22028/2143 SLP103 T02560172 $
Notes:

Financial History
Total Freight: 1,185,645lbs
Average Load: 84,689lbs/flt
Fuel Used: 170,957lbs
Avg. Fuel Used: 12,211lbs/flt
Fuel Expense: $212,503
Avg. Fuel Expense: $15,179
Avg. Fuel Cost: $1.23/lbs
Total Gross Income: $1,624,960
Pilot Pay: $2,906
Total Expenses: $180,368
Total Revenue: $1,228,490
Average Revenue: $116,068.54